sensor_id;sensor_type;location;lat;lon;timestamp;P1;durP1;ratioP1;P2;durP2;ratioP2
13419;SDS011;6781;58.440;15.470;2022-08-04T00:01:27;5.35;;;2.83;;
13419;SDS011;6781;58.440;15.470;2022-08-04T00:04:00;5.07;;;3.15;;
13419;SDS011;6781;58.440;15.470;2022-08-04T00:06:41;4.22;;;2.67;;
13419;SDS011;6781;58.440;15.470;2022-08-04T00:09:24;6.38;;;3.05;;
13419;SDS011;6781;58.440;15.470;2022-08-04T00:12:09;3.70;;;2.72;;
13419;SDS011;6781;58.440;15.470;2022-08-04T00:14:40;6.68;;;3.20;;
13419;SDS011;6781;58.440;15.470;2022-08-04T00:17:13;4.45;;;3.20;;
13419;SDS011;6781;58.440;15.470;2022-08-04T00:19:54;4.47;;;3.13;;
13419;SDS011;6781;58.440;15.470;2022-08-04T00:25:19;5.38;;;3.67;;
13419;SDS011;6781;58.440;15.470;2022-08-04T00:27:54;9.35;;;3.58;;
13419;SDS011;6781;58.440;15.470;2022-08-04T00:30:23;3.55;;;3.20;;
13419;SDS011;6781;58.440;15.470;2022-08-04T00:32:53;4.43;;;3.33;;
13419;SDS011;6781;58.440;15.470;2022-08-04T00:35:36;4.00;;;2.75;;
13419;SDS011;6781;58.440;15.470;2022-08-04T00:41:08;4.40;;;2.90;;
13419;SDS011;6781;58.440;15.470;2022-08-04T00:43:48;4.50;;;3.00;;
13419;SDS011;6781;58.440;15.470;2022-08-04T00:46:52;6.03;;;3.17;;
13419;SDS011;6781;58.440;15.470;2022-08-04T00:49:35;5.68;;;3.20;;
13419;SDS011;6781;58.440;15.470;2022-08-04T00:52:24;3.97;;;2.85;;
13419;SDS011;6781;58.440;15.470;2022-08-04T00:55:04;5.45;;;3.28;;
13419;SDS011;6781;58.440;15.470;2022-08-04T00:57:48;5.30;;;2.70;;
13419;SDS011;6781;58.440;15.470;2022-08-04T01:00:24;5.93;;;3.20;;
13419;SDS011;6781;58.440;15.470;2022-08-04T01:02:56;5.70;;;3.30;;
13419;SDS011;6781;58.440;15.470;2022-08-04T01:05:36;4.47;;;2.80;;
13419;SDS011;6781;58.440;15.470;2022-08-04T01:08:33;4.80;;;2.45;;
13419;SDS011;6781;58.440;15.470;2022-08-04T01:11:20;2.30;;;2.10;;
13419;SDS011;6781;58.440;15.470;2022-08-04T01:14:04;3.35;;;2.45;;
13419;SDS011;6781;58.440;15.470;2022-08-04T01:16:45;3.03;;;2.35;;
13419;SDS011;6781;58.440;15.470;2022-08-04T01:19:23;2.85;;;2.58;;
13419;SDS011;6781;58.440;15.470;2022-08-04T01:22:16;5.35;;;2.83;;
13419;SDS011;6781;58.440;15.470;2022-08-04T01:24:58;4.65;;;2.78;;
13419;SDS011;6781;58.440;15.470;2022-08-04T01:27:41;4.93;;;2.95;;
13419;SDS011;6781;58.440;15.470;2022-08-04T01:30:27;4.50;;;2.80;;
13419;SDS011;6781;58.440;15.470;2022-08-04T01:32:59;7.25;;;3.42;;
13419;SDS011;6781;58.440;15.470;2022-08-04T01:35:34;4.15;;;3.03;;
13419;SDS011;6781;58.440;15.470;2022-08-04T01:38:11;3.20;;;2.90;;
13419;SDS011;6781;58.440;15.470;2022-08-04T01:40:43;4.03;;;3.17;;
13419;SDS011;6781;58.440;15.470;2022-08-04T01:43:12;3.45;;;2.70;;
13419;SDS011;6781;58.440;15.470;2022-08-04T01:45:43;4.90;;;2.65;;
13419;SDS011;6781;58.440;15.470;2022-08-04T01:48:27;4.78;;;2.92;;
13419;SDS011;6781;58.440;15.470;2022-08-04T01:50:56;5.30;;;3.08;;
13419;SDS011;6781;58.440;15.470;2022-08-04T01:53:28;4.20;;;2.80;;
13419;SDS011;6781;58.440;15.470;2022-08-04T01:55:58;4.97;;;3.20;;
13419;SDS011;6781;58.440;15.470;2022-08-04T01:58:27;5.88;;;3.63;;
13419;SDS011;6781;58.440;15.470;2022-08-04T02:00:59;12.35;;;3.53;;
13419;SDS011;6781;58.440;15.470;2022-08-04T02:03:31;5.40;;;3.05;;
13419;SDS011;6781;58.440;15.470;2022-08-04T02:08:36;6.28;;;3.47;;
13419;SDS011;6781;58.440;15.470;2022-08-04T02:11:35;6.90;;;4.10;;
13419;SDS011;6781;58.440;15.470;2022-08-04T02:14:12;6.35;;;3.65;;
13419;SDS011;6781;58.440;15.470;2022-08-04T02:17:05;7.20;;;3.90;;
13419;SDS011;6781;58.440;15.470;2022-08-04T02:19:40;8.27;;;3.53;;
13419;SDS011;6781;58.440;15.470;2022-08-04T02:22:21;5.88;;;4.00;;
13419;SDS011;6781;58.440;15.470;2022-08-04T02:24:53;8.77;;;4.40;;
13419;SDS011;6781;58.440;15.470;2022-08-04T02:27:28;4.55;;;3.75;;
13419;SDS011;6781;58.440;15.470;2022-08-04T02:30:11;5.90;;;4.20;;
13419;SDS011;6781;58.440;15.470;2022-08-04T02:32:44;5.00;;;4.07;;
13419;SDS011;6781;58.440;15.470;2022-08-04T02:35:14;7.05;;;5.15;;
13419;SDS011;6781;58.440;15.470;2022-08-04T02:37:54;8.43;;;6.00;;
13419;SDS011;6781;58.440;15.470;2022-08-04T02:40:26;6.00;;;5.03;;
13419;SDS011;6781;58.440;15.470;2022-08-04T02:42:58;7.47;;;6.70;;
13419;SDS011;6781;58.440;15.470;2022-08-04T02:45:29;8.07;;;7.13;;
13419;SDS011;6781;58.440;15.470;2022-08-04T02:48:07;9.30;;;7.55;;
13419;SDS011;6781;58.440;15.470;2022-08-04T02:50:36;5.95;;;5.20;;
13419;SDS011;6781;58.440;15.470;2022-08-04T02:53:04;7.63;;;6.78;;
13419;SDS011;6781;58.440;15.470;2022-08-04T02:55:34;9.32;;;6.68;;
13419;SDS011;6781;58.440;15.470;2022-08-04T02:58:02;8.80;;;5.70;;
13419;SDS011;6781;58.440;15.470;2022-08-04T03:00:29;7.95;;;6.30;;
13419;SDS011;6781;58.440;15.470;2022-08-04T03:03:01;9.43;;;6.50;;
13419;SDS011;6781;58.440;15.470;2022-08-04T03:05:43;11.10;;;7.13;;
13419;SDS011;6781;58.440;15.470;2022-08-04T03:08:35;10.07;;;6.93;;
13419;SDS011;6781;58.440;15.470;2022-08-04T03:11:36;7.97;;;6.38;;
13419;SDS011;6781;58.440;15.470;2022-08-04T03:14:42;6.75;;;5.93;;
13419;SDS011;6781;58.440;15.470;2022-08-04T03:17:34;8.20;;;5.40;;
13419;SDS011;6781;58.440;15.470;2022-08-04T03:20:28;9.45;;;6.53;;
13419;SDS011;6781;58.440;15.470;2022-08-04T03:23:19;7.30;;;5.63;;
13419;SDS011;6781;58.440;15.470;2022-08-04T03:26:11;7.70;;;5.72;;
13419;SDS011;6781;58.440;15.470;2022-08-04T03:29:09;5.72;;;5.22;;
13419;SDS011;6781;58.440;15.470;2022-08-04T03:35:00;9.63;;;6.50;;
13419;SDS011;6781;58.440;15.470;2022-08-04T03:40:45;9.52;;;6.88;;
13419;SDS011;6781;58.440;15.470;2022-08-04T03:46:52;8.65;;;7.45;;
13419;SDS011;6781;58.440;15.470;2022-08-04T03:52:54;8.48;;;5.65;;
13419;SDS011;6781;58.440;15.470;2022-08-04T03:58:43;9.00;;;6.60;;
13419;SDS011;6781;58.440;15.470;2022-08-04T04:01:37;10.07;;;7.97;;
13419;SDS011;6781;58.440;15.470;2022-08-04T04:04:22;11.55;;;7.88;;
13419;SDS011;6781;58.440;15.470;2022-08-04T04:07:07;8.75;;;6.80;;
13419;SDS011;6781;58.440;15.470;2022-08-04T04:10:05;13.02;;;7.13;;
13419;SDS011;6781;58.440;15.470;2022-08-04T04:13:01;10.38;;;6.85;;
13419;SDS011;6781;58.440;15.470;2022-08-04T04:18:51;9.25;;;6.68;;
13419;SDS011;6781;58.440;15.470;2022-08-04T04:21:55;7.10;;;6.40;;
13419;SDS011;6781;58.440;15.470;2022-08-04T04:24:32;8.57;;;6.13;;
13419;SDS011;6781;58.440;15.470;2022-08-04T04:27:23;5.88;;;5.28;;
13419;SDS011;6781;58.440;15.470;2022-08-04T04:30:04;9.70;;;5.32;;
13419;SDS011;6781;58.440;15.470;2022-08-04T04:32:53;8.23;;;4.65;;
13419;SDS011;6781;58.440;15.470;2022-08-04T04:35:31;6.13;;;4.65;;
13419;SDS011;6781;58.440;15.470;2022-08-04T04:38:11;8.63;;;4.65;;
13419;SDS011;6781;58.440;15.470;2022-08-04T04:40:55;4.68;;;4.20;;
13419;SDS011;6781;58.440;15.470;2022-08-04T04:46:42;8.70;;;4.40;;
13419;SDS011;6781;58.440;15.470;2022-08-04T04:49:16;7.47;;;4.13;;
13419;SDS011;6781;58.440;15.470;2022-08-04T04:51:54;9.93;;;3.92;;
13419;SDS011;6781;58.440;15.470;2022-08-04T04:54:27;8.13;;;3.90;;
13419;SDS011;6781;58.440;15.470;2022-08-04T04:57:02;4.30;;;3.15;;
13419;SDS011;6781;58.440;15.470;2022-08-04T04:59:38;7.13;;;3.97;;
13419;SDS011;6781;58.440;15.470;2022-08-04T05:02:27;9.13;;;3.80;;
13419;SDS011;6781;58.440;15.470;2022-08-04T05:08:35;5.90;;;2.90;;
13419;SDS011;6781;58.440;15.470;2022-08-04T05:11:32;4.55;;;3.70;;
13419;SDS011;6781;58.440;15.470;2022-08-04T05:14:24;8.25;;;4.22;;
13419;SDS011;6781;58.440;15.470;2022-08-04T05:16:59;4.55;;;3.60;;
13419;SDS011;6781;58.440;15.470;2022-08-04T05:19:48;6.00;;;3.45;;
13419;SDS011;6781;58.440;15.470;2022-08-04T05:22:21;4.93;;;3.33;;
13419;SDS011;6781;58.440;15.470;2022-08-04T05:24:58;6.50;;;3.53;;
13419;SDS011;6781;58.440;15.470;2022-08-04T05:27:29;8.40;;;3.60;;
13419;SDS011;6781;58.440;15.470;2022-08-04T05:30:01;5.03;;;3.53;;
13419;SDS011;6781;58.440;15.470;2022-08-04T05:32:34;6.57;;;3.72;;
13419;SDS011;6781;58.440;15.470;2022-08-04T05:35:07;4.75;;;3.53;;
13419;SDS011;6781;58.440;15.470;2022-08-04T05:37:37;6.65;;;3.97;;
13419;SDS011;6781;58.440;15.470;2022-08-04T05:40:07;5.88;;;3.50;;
13419;SDS011;6781;58.440;15.470;2022-08-04T05:42:36;4.20;;;3.08;;
13419;SDS011;6781;58.440;15.470;2022-08-04T05:45:06;6.47;;;3.78;;
13419;SDS011;6781;58.440;15.470;2022-08-04T05:47:36;5.60;;;3.42;;
13419;SDS011;6781;58.440;15.470;2022-08-04T05:50:05;6.85;;;3.75;;
13419;SDS011;6781;58.440;15.470;2022-08-04T05:52:33;6.10;;;3.17;;
13419;SDS011;6781;58.440;15.470;2022-08-04T05:55:03;4.25;;;3.22;;
13419;SDS011;6781;58.440;15.470;2022-08-04T05:57:32;6.82;;;3.42;;
13419;SDS011;6781;58.440;15.470;2022-08-04T06:00:03;6.05;;;3.00;;
13419;SDS011;6781;58.440;15.470;2022-08-04T06:02:33;3.45;;;3.15;;
13419;SDS011;6781;58.440;15.470;2022-08-04T06:05:03;5.25;;;2.63;;
13419;SDS011;6781;58.440;15.470;2022-08-04T06:07:32;4.75;;;2.95;;
13419;SDS011;6781;58.440;15.470;2022-08-04T06:10:00;3.63;;;2.75;;
13419;SDS011;6781;58.440;15.470;2022-08-04T06:12:29;2.75;;;2.53;;
13419;SDS011;6781;58.440;15.470;2022-08-04T06:15:13;5.05;;;2.88;;
13419;SDS011;6781;58.440;15.470;2022-08-04T06:20:49;4.80;;;2.95;;
13419;SDS011;6781;58.440;15.470;2022-08-04T06:23:19;4.05;;;2.60;;
13419;SDS011;6781;58.440;15.470;2022-08-04T06:26:02;6.18;;;2.60;;
13419;SDS011;6781;58.440;15.470;2022-08-04T06:28:30;3.40;;;2.33;;
13419;SDS011;6781;58.440;15.470;2022-08-04T06:31:11;2.40;;;2.17;;
13419;SDS011;6781;58.440;15.470;2022-08-04T06:33:46;2.90;;;2.25;;
13419;SDS011;6781;58.440;15.470;2022-08-04T06:39:19;4.63;;;2.60;;
13419;SDS011;6781;58.440;15.470;2022-08-04T06:41:49;5.80;;;2.30;;
13419;SDS011;6781;58.440;15.470;2022-08-04T06:44:18;5.05;;;2.60;;
13419;SDS011;6781;58.440;15.470;2022-08-04T06:46:51;4.38;;;2.33;;
13419;SDS011;6781;58.440;15.470;2022-08-04T06:49:23;3.28;;;2.50;;
13419;SDS011;6781;58.440;15.470;2022-08-04T06:51:53;2.83;;;2.22;;
13419;SDS011;6781;58.440;15.470;2022-08-04T06:54:24;4.88;;;2.47;;
13419;SDS011;6781;58.440;15.470;2022-08-04T06:57:05;4.10;;;2.53;;
13419;SDS011;6781;58.440;15.470;2022-08-04T06:59:46;3.97;;;2.20;;
13419;SDS011;6781;58.440;15.470;2022-08-04T07:02:30;4.72;;;2.40;;
13419;SDS011;6781;58.440;15.470;2022-08-04T07:05:03;3.53;;;2.22;;
13419;SDS011;6781;58.440;15.470;2022-08-04T07:07:31;3.55;;;2.13;;
13419;SDS011;6781;58.440;15.470;2022-08-04T07:12:58;7.15;;;2.42;;
13419;SDS011;6781;58.440;15.470;2022-08-04T07:15:27;3.63;;;2.35;;
13419;SDS011;6781;58.440;15.470;2022-08-04T07:18:08;2.20;;;1.77;;
13419;SDS011;6781;58.440;15.470;2022-08-04T07:20:49;3.08;;;2.15;;
13419;SDS011;6781;58.440;15.470;2022-08-04T07:23:30;3.83;;;2.00;;
13419;SDS011;6781;58.440;15.470;2022-08-04T07:26:11;3.13;;;1.80;;
13419;SDS011;6781;58.440;15.470;2022-08-04T07:31:36;5.68;;;2.10;;
13419;SDS011;6781;58.440;15.470;2022-08-04T07:34:04;3.00;;;2.10;;
13419;SDS011;6781;58.440;15.470;2022-08-04T07:36:32;2.33;;;2.00;;
13419;SDS011;6781;58.440;15.470;2022-08-04T07:38:59;3.33;;;1.90;;
13419;SDS011;6781;58.440;15.470;2022-08-04T07:41:26;3.53;;;1.80;;
13419;SDS011;6781;58.440;15.470;2022-08-04T07:43:53;2.53;;;1.65;;
13419;SDS011;6781;58.440;15.470;2022-08-04T07:49:18;3.33;;;1.55;;
13419;SDS011;6781;58.440;15.470;2022-08-04T07:51:59;4.93;;;1.60;;
13419;SDS011;6781;58.440;15.470;2022-08-04T07:54:41;5.30;;;1.65;;
13419;SDS011;6781;58.440;15.470;2022-08-04T07:57:22;2.55;;;1.58;;
13419;SDS011;6781;58.440;15.470;2022-08-04T08:00:03;2.25;;;1.45;;
13419;SDS011;6781;58.440;15.470;2022-08-04T08:02:37;1.70;;;1.40;;
13419;SDS011;6781;58.440;15.470;2022-08-04T08:05:05;2.50;;;1.70;;
13419;SDS011;6781;58.440;15.470;2022-08-04T08:07:38;2.53;;;1.50;;
13419;SDS011;6781;58.440;15.470;2022-08-04T08:10:10;1.60;;;1.50;;
13419;SDS011;6781;58.440;15.470;2022-08-04T08:12:37;2.05;;;1.42;;
13419;SDS011;6781;58.440;15.470;2022-08-04T08:15:05;2.75;;;1.60;;
13419;SDS011;6781;58.440;15.470;2022-08-04T08:17:34;2.88;;;1.50;;
13419;SDS011;6781;58.440;15.470;2022-08-04T08:20:04;3.42;;;1.70;;
13419;SDS011;6781;58.440;15.470;2022-08-04T08:22:32;2.83;;;1.30;;
13419;SDS011;6781;58.440;15.470;2022-08-04T08:25:10;2.33;;;1.42;;
13419;SDS011;6781;58.440;15.470;2022-08-04T08:27:37;3.70;;;1.52;;
13419;SDS011;6781;58.440;15.470;2022-08-04T08:30:17;2.80;;;1.42;;
13419;SDS011;6781;58.440;15.470;2022-08-04T08:32:54;2.22;;;1.20;;
13419;SDS011;6781;58.440;15.470;2022-08-04T08:35:23;1.83;;;1.30;;
13419;SDS011;6781;58.440;15.470;2022-08-04T08:37:53;3.80;;;1.70;;
13419;SDS011;6781;58.440;15.470;2022-08-04T08:40:26;2.05;;;1.30;;
13419;SDS011;6781;58.440;15.470;2022-08-04T08:43:15;1.92;;;1.50;;
13419;SDS011;6781;58.440;15.470;2022-08-04T08:46:18;5.32;;;1.45;;
13419;SDS011;6781;58.440;15.470;2022-08-04T08:49:02;2.90;;;1.30;;
13419;SDS011;6781;58.440;15.470;2022-08-04T08:51:51;1.70;;;1.20;;
13419;SDS011;6781;58.440;15.470;2022-08-04T08:54:45;3.50;;;1.67;;
13419;SDS011;6781;58.440;15.470;2022-08-04T08:57:36;2.72;;;1.40;;
13419;SDS011;6781;58.440;15.470;2022-08-04T09:00:13;1.85;;;1.10;;
13419;SDS011;6781;58.440;15.470;2022-08-04T09:02:57;4.03;;;1.40;;
13419;SDS011;6781;58.440;15.470;2022-08-04T09:06:16;1.35;;;1.25;;
13419;SDS011;6781;58.440;15.470;2022-08-04T09:09:13;1.40;;;1.30;;
13419;SDS011;6781;58.440;15.470;2022-08-04T09:12:04;2.85;;;1.52;;
13419;SDS011;6781;58.440;15.470;2022-08-04T09:14:38;2.60;;;1.27;;
13419;SDS011;6781;58.440;15.470;2022-08-04T09:17:12;3.13;;;1.30;;
13419;SDS011;6781;58.440;15.470;2022-08-04T09:19:49;2.03;;;1.40;;
13419;SDS011;6781;58.440;15.470;2022-08-04T09:22:23;1.55;;;1.10;;
13419;SDS011;6781;58.440;15.470;2022-08-04T09:24:59;1.50;;;1.40;;
13419;SDS011;6781;58.440;15.470;2022-08-04T09:27:34;3.47;;;1.40;;
13419;SDS011;6781;58.440;15.470;2022-08-04T09:30:19;4.50;;;1.58;;
13419;SDS011;6781;58.440;15.470;2022-08-04T09:32:53;1.73;;;1.40;;
13419;SDS011;6781;58.440;15.470;2022-08-04T09:35:32;1.48;;;1.20;;
13419;SDS011;6781;58.440;15.470;2022-08-04T09:38:09;1.33;;;0.95;;
13419;SDS011;6781;58.440;15.470;2022-08-04T09:40:50;3.38;;;1.30;;
13419;SDS011;6781;58.440;15.470;2022-08-04T09:43:28;1.88;;;1.40;;
13419;SDS011;6781;58.440;15.470;2022-08-04T09:46:16;2.17;;;1.23;;
13419;SDS011;6781;58.440;15.470;2022-08-04T09:49:05;1.80;;;1.38;;
13419;SDS011;6781;58.440;15.470;2022-08-04T09:51:47;2.58;;;1.10;;
13419;SDS011;6781;58.440;15.470;2022-08-04T09:54:24;1.30;;;1.20;;
13419;SDS011;6781;58.440;15.470;2022-08-04T09:57:03;3.65;;;1.90;;
13419;SDS011;6781;58.440;15.470;2022-08-04T09:59:39;2.33;;;1.35;;
13419;SDS011;6781;58.440;15.470;2022-08-04T10:02:10;2.55;;;1.20;;
13419;SDS011;6781;58.440;15.470;2022-08-04T10:04:41;2.42;;;1.20;;
13419;SDS011;6781;58.440;15.470;2022-08-04T10:07:15;1.30;;;1.20;;
13419;SDS011;6781;58.440;15.470;2022-08-04T10:13:05;1.85;;;1.30;;
13419;SDS011;6781;58.440;15.470;2022-08-04T10:15:57;1.95;;;1.30;;
13419;SDS011;6781;58.440;15.470;2022-08-04T10:18:49;1.20;;;1.10;;
13419;SDS011;6781;58.440;15.470;2022-08-04T10:21:42;1.70;;;1.40;;
13419;SDS011;6781;58.440;15.470;2022-08-04T10:27:15;2.20;;;1.30;;
13419;SDS011;6781;58.440;15.470;2022-08-04T10:29:49;4.20;;;1.20;;
13419;SDS011;6781;58.440;15.470;2022-08-04T10:32:16;1.23;;;1.13;;
13419;SDS011;6781;58.440;15.470;2022-08-04T10:35:00;3.05;;;1.20;;
13419;SDS011;6781;58.440;15.470;2022-08-04T10:37:49;2.15;;;1.17;;
13419;SDS011;6781;58.440;15.470;2022-08-04T10:40:40;1.67;;;1.00;;
13419;SDS011;6781;58.440;15.470;2022-08-04T10:43:32;1.00;;;1.00;;
13419;SDS011;6781;58.440;15.470;2022-08-04T10:46:13;2.58;;;1.20;;
13419;SDS011;6781;58.440;15.470;2022-08-04T10:48:48;1.20;;;0.90;;
13419;SDS011;6781;58.440;15.470;2022-08-04T10:51:38;1.15;;;0.88;;
13419;SDS011;6781;58.440;15.470;2022-08-04T10:54:28;1.95;;;1.20;;
13419;SDS011;6781;58.440;15.470;2022-08-04T10:57:18;1.00;;;1.00;;
13419;SDS011;6781;58.440;15.470;2022-08-04T10:59:53;1.90;;;1.13;;
13419;SDS011;6781;58.440;15.470;2022-08-04T11:02:31;1.27;;;1.10;;
13419;SDS011;6781;58.440;15.470;2022-08-04T11:05:04;0.98;;;0.93;;
13419;SDS011;6781;58.440;15.470;2022-08-04T11:07:50;1.92;;;0.90;;
13419;SDS011;6781;58.440;15.470;2022-08-04T11:10:23;1.77;;;0.80;;
13419;SDS011;6781;58.440;15.470;2022-08-04T11:12:56;1.77;;;1.10;;
13419;SDS011;6781;58.440;15.470;2022-08-04T11:15:30;2.45;;;1.00;;
13419;SDS011;6781;58.440;15.470;2022-08-04T11:18:07;1.58;;;0.70;;
13419;SDS011;6781;58.440;15.470;2022-08-04T11:21:03;0.82;;;0.70;;
13419;SDS011;6781;58.440;15.470;2022-08-04T11:23:46;1.02;;;0.90;;
13419;SDS011;6781;58.440;15.470;2022-08-04T11:26:31;1.02;;;0.93;;
13419;SDS011;6781;58.440;15.470;2022-08-04T11:29:04;1.20;;;0.90;;
13419;SDS011;6781;58.440;15.470;2022-08-04T11:31:39;0.93;;;0.93;;
13419;SDS011;6781;58.440;15.470;2022-08-04T11:34:13;0.98;;;0.98;;
13419;SDS011;6781;58.440;15.470;2022-08-04T11:36:45;0.82;;;0.82;;
13419;SDS011;6781;58.440;15.470;2022-08-04T11:39:20;1.45;;;1.15;;
13419;SDS011;6781;58.440;15.470;2022-08-04T11:41:57;1.05;;;1.00;;
13419;SDS011;6781;58.440;15.470;2022-08-04T11:44:46;1.65;;;0.90;;
13419;SDS011;6781;58.440;15.470;2022-08-04T11:47:29;2.92;;;0.90;;
13419;SDS011;6781;58.440;15.470;2022-08-04T11:53:14;1.52;;;0.90;;
13419;SDS011;6781;58.440;15.470;2022-08-04T11:55:44;0.80;;;0.80;;
13419;SDS011;6781;58.440;15.470;2022-08-04T11:58:14;0.93;;;0.93;;
13419;SDS011;6781;58.440;15.470;2022-08-04T12:00:44;1.27;;;0.70;;
13419;SDS011;6781;58.440;15.470;2022-08-04T12:03:24;1.13;;;0.80;;
13419;SDS011;6781;58.440;15.470;2022-08-04T12:06:09;1.08;;;1.00;;
13419;SDS011;6781;58.440;15.470;2022-08-04T12:08:50;2.10;;;0.90;;
13419;SDS011;6781;58.440;15.470;2022-08-04T12:11:27;1.30;;;1.20;;
13419;SDS011;6781;58.440;15.470;2022-08-04T12:14:09;2.80;;;1.83;;
13419;SDS011;6781;58.440;15.470;2022-08-04T12:17:01;1.38;;;1.00;;
13419;SDS011;6781;58.440;15.470;2022-08-04T12:19:32;0.77;;;0.77;;
13419;SDS011;6781;58.440;15.470;2022-08-04T12:22:10;1.83;;;1.00;;
13419;SDS011;6781;58.440;15.470;2022-08-04T12:24:42;0.80;;;0.80;;
13419;SDS011;6781;58.440;15.470;2022-08-04T12:27:13;1.00;;;1.00;;
13419;SDS011;6781;58.440;15.470;2022-08-04T12:29:42;1.77;;;0.90;;
13419;SDS011;6781;58.440;15.470;2022-08-04T12:32:21;1.02;;;1.00;;
13419;SDS011;6781;58.440;15.470;2022-08-04T12:35:00;1.77;;;0.90;;
13419;SDS011;6781;58.440;15.470;2022-08-04T12:40:50;1.50;;;1.08;;
13419;SDS011;6781;58.440;15.470;2022-08-04T12:43:22;2.85;;;1.02;;
13419;SDS011;6781;58.440;15.470;2022-08-04T12:45:55;3.75;;;1.27;;
13419;SDS011;6781;58.440;15.470;2022-08-04T12:48:44;1.95;;;1.35;;
13419;SDS011;6781;58.440;15.470;2022-08-04T12:51:27;3.05;;;1.40;;
13419;SDS011;6781;58.440;15.470;2022-08-04T12:53:54;2.63;;;1.30;;
13419;SDS011;6781;58.440;15.470;2022-08-04T12:56:25;3.00;;;1.42;;
13419;SDS011;6781;58.440;15.470;2022-08-04T12:59:00;4.22;;;1.63;;
13419;SDS011;6781;58.440;15.470;2022-08-04T13:01:29;2.33;;;1.20;;
13419;SDS011;6781;58.440;15.470;2022-08-04T13:04:11;3.17;;;1.50;;
13419;SDS011;6781;58.440;15.470;2022-08-04T13:06:56;3.75;;;1.48;;
13419;SDS011;6781;58.440;15.470;2022-08-04T13:09:27;2.58;;;1.33;;
13419;SDS011;6781;58.440;15.470;2022-08-04T13:12:01;5.72;;;1.42;;
13419;SDS011;6781;58.440;15.470;2022-08-04T13:14:30;6.43;;;1.75;;
13419;SDS011;6781;58.440;15.470;2022-08-04T13:17:03;3.60;;;1.38;;
13419;SDS011;6781;58.440;15.470;2022-08-04T13:19:31;9.68;;;1.80;;
13419;SDS011;6781;58.440;15.470;2022-08-04T13:21:59;3.30;;;1.48;;
13419;SDS011;6781;58.440;15.470;2022-08-04T13:24:40;5.15;;;1.40;;
13419;SDS011;6781;58.440;15.470;2022-08-04T13:27:11;2.47;;;1.50;;
13419;SDS011;6781;58.440;15.470;2022-08-04T13:29:39;5.55;;;1.60;;
13419;SDS011;6781;58.440;15.470;2022-08-04T13:32:08;4.72;;;1.70;;
13419;SDS011;6781;58.440;15.470;2022-08-04T13:34:39;4.32;;;1.67;;
13419;SDS011;6781;58.440;15.470;2022-08-04T13:37:08;3.05;;;1.63;;
13419;SDS011;6781;58.440;15.470;2022-08-04T13:39:36;5.95;;;1.80;;
13419;SDS011;6781;58.440;15.470;2022-08-04T13:42:26;3.28;;;1.73;;
13419;SDS011;6781;58.440;15.470;2022-08-04T13:44:55;2.95;;;1.50;;
13419;SDS011;6781;58.440;15.470;2022-08-04T13:47:26;5.07;;;1.80;;
13419;SDS011;6781;58.440;15.470;2022-08-04T13:50:07;6.85;;;1.98;;
13419;SDS011;6781;58.440;15.470;2022-08-04T13:52:52;4.43;;;2.00;;
13419;SDS011;6781;58.440;15.470;2022-08-04T13:55:21;6.15;;;1.92;;
13419;SDS011;6781;58.440;15.470;2022-08-04T13:57:54;7.07;;;2.17;;
13419;SDS011;6781;58.440;15.470;2022-08-04T14:00:24;7.95;;;2.00;;
13419;SDS011;6781;58.440;15.470;2022-08-04T14:03:02;4.20;;;1.90;;
13419;SDS011;6781;58.440;15.470;2022-08-04T14:05:32;5.40;;;2.20;;
13419;SDS011;6781;58.440;15.470;2022-08-04T14:08:04;4.78;;;2.00;;
13419;SDS011;6781;58.440;15.470;2022-08-04T14:10:34;5.82;;;2.05;;
13419;SDS011;6781;58.440;15.470;2022-08-04T14:13:04;3.95;;;1.52;;
13419;SDS011;6781;58.440;15.470;2022-08-04T14:15:32;2.92;;;1.50;;
13419;SDS011;6781;58.440;15.470;2022-08-04T14:18:15;6.13;;;2.13;;
13419;SDS011;6781;58.440;15.470;2022-08-04T14:21:03;5.03;;;2.22;;
13419;SDS011;6781;58.440;15.470;2022-08-04T14:23:37;4.72;;;2.00;;
13419;SDS011;6781;58.440;15.470;2022-08-04T14:26:21;7.72;;;2.38;;
13419;SDS011;6781;58.440;15.470;2022-08-04T14:29:06;4.75;;;2.00;;
13419;SDS011;6781;58.440;15.470;2022-08-04T14:31:41;5.88;;;2.10;;
13419;SDS011;6781;58.440;15.470;2022-08-04T14:34:10;4.22;;;1.73;;
13419;SDS011;6781;58.440;15.470;2022-08-04T14:36:51;5.30;;;2.10;;
13419;SDS011;6781;58.440;15.470;2022-08-04T14:39:23;4.68;;;2.05;;
13419;SDS011;6781;58.440;15.470;2022-08-04T14:42:05;6.32;;;2.35;;
13419;SDS011;6781;58.440;15.470;2022-08-04T14:45:01;5.57;;;2.08;;
13419;SDS011;6781;58.440;15.470;2022-08-04T14:47:37;5.70;;;2.00;;
13419;SDS011;6781;58.440;15.470;2022-08-04T14:50:07;10.85;;;2.20;;
13419;SDS011;6781;58.440;15.470;2022-08-04T14:52:35;4.65;;;1.73;;
13419;SDS011;6781;58.440;15.470;2022-08-04T14:55:15;5.57;;;1.90;;
13419;SDS011;6781;58.440;15.470;2022-08-04T14:57:49;6.55;;;2.22;;
13419;SDS011;6781;58.440;15.470;2022-08-04T15:00:24;6.28;;;1.90;;
13419;SDS011;6781;58.440;15.470;2022-08-04T15:03:06;5.90;;;2.38;;
13419;SDS011;6781;58.440;15.470;2022-08-04T15:05:36;10.50;;;2.30;;
13419;SDS011;6781;58.440;15.470;2022-08-04T15:08:05;8.73;;;2.78;;
13419;SDS011;6781;58.440;15.470;2022-08-04T15:10:33;6.95;;;2.08;;
13419;SDS011;6781;58.440;15.470;2022-08-04T15:13:00;7.43;;;2.47;;
13419;SDS011;6781;58.440;15.470;2022-08-04T15:15:29;8.25;;;2.17;;
13419;SDS011;6781;58.440;15.470;2022-08-04T15:17:57;6.28;;;2.50;;
13419;SDS011;6781;58.440;15.470;2022-08-04T15:20:24;6.47;;;2.47;;
13419;SDS011;6781;58.440;15.470;2022-08-04T15:22:51;6.13;;;2.15;;
13419;SDS011;6781;58.440;15.470;2022-08-04T15:25:26;10.25;;;2.60;;
13419;SDS011;6781;58.440;15.470;2022-08-04T15:27:55;5.85;;;1.88;;
13419;SDS011;6781;58.440;15.470;2022-08-04T15:30:25;2.70;;;2.17;;
13419;SDS011;6781;58.440;15.470;2022-08-04T15:33:05;5.97;;;2.17;;
13419;SDS011;6781;58.440;15.470;2022-08-04T15:35:36;5.68;;;2.30;;
13419;SDS011;6781;58.440;15.470;2022-08-04T15:38:22;3.17;;;2.28;;
13419;SDS011;6781;58.440;15.470;2022-08-04T15:41:09;8.45;;;2.15;;
13419;SDS011;6781;58.440;15.470;2022-08-04T15:44:05;4.63;;;2.13;;
13419;SDS011;6781;58.440;15.470;2022-08-04T15:47:11;5.72;;;2.08;;
13419;SDS011;6781;58.440;15.470;2022-08-04T15:49:40;3.97;;;1.88;;
13419;SDS011;6781;58.440;15.470;2022-08-04T15:52:13;8.30;;;1.92;;
13419;SDS011;6781;58.440;15.470;2022-08-04T15:54:43;3.92;;;1.75;;
13419;SDS011;6781;58.440;15.470;2022-08-04T15:57:14;5.55;;;1.83;;
13419;SDS011;6781;58.440;15.470;2022-08-04T15:59:59;4.95;;;1.75;;
13419;SDS011;6781;58.440;15.470;2022-08-04T16:02:40;6.82;;;2.20;;
13419;SDS011;6781;58.440;15.470;2022-08-04T16:05:31;9.38;;;1.75;;
13419;SDS011;6781;58.440;15.470;2022-08-04T16:08:15;3.78;;;1.90;;
13419;SDS011;6781;58.440;15.470;2022-08-04T16:10:56;5.63;;;2.00;;
13419;SDS011;6781;58.440;15.470;2022-08-04T16:13:37;4.03;;;2.03;;
13419;SDS011;6781;58.440;15.470;2022-08-04T16:16:45;4.18;;;1.90;;
13419;SDS011;6781;58.440;15.470;2022-08-04T16:22:33;5.40;;;2.40;;
13419;SDS011;6781;58.440;15.470;2022-08-04T16:25:21;4.47;;;1.80;;
13419;SDS011;6781;58.440;15.470;2022-08-04T16:28:34;7.35;;;2.35;;
13419;SDS011;6781;58.440;15.470;2022-08-04T16:31:29;6.28;;;2.00;;
13419;SDS011;6781;58.440;15.470;2022-08-04T16:34:01;6.22;;;2.25;;
13419;SDS011;6781;58.440;15.470;2022-08-04T16:36:55;4.78;;;2.20;;
13419;SDS011;6781;58.440;15.470;2022-08-04T16:39:39;5.90;;;2.85;;
13419;SDS011;6781;58.440;15.470;2022-08-04T16:44:57;6.38;;;2.38;;
13419;SDS011;6781;58.440;15.470;2022-08-04T16:53:47;3.95;;;2.22;;
13419;SDS011;6781;58.440;15.470;2022-08-04T16:56:37;3.83;;;2.15;;
13419;SDS011;6781;58.440;15.470;2022-08-04T16:59:20;10.20;;;2.63;;
13419;SDS011;6781;58.440;15.470;2022-08-04T17:02:06;3.72;;;2.13;;
13419;SDS011;6781;58.440;15.470;2022-08-04T17:04:35;3.53;;;2.03;;
13419;SDS011;6781;58.440;15.470;2022-08-04T17:07:07;7.20;;;2.60;;